Franksville, WI (53126)

9:33 AM CDT on August 28, 2015 (GMT -0500)
My Observatory 108th & 4-1/2 mile Rd | | Change Station
CLOSE
Current Station
Personal Weather Station
Location: Franksville, WI
Elevation: 810 ft
Nearby Weather Stations

Elev 810 ft 42.79 °N, 88.05 °W | Updated 7 seconds ago

Partly Cloudy
Partly Cloudy
67.9 °F
Feels Like 67.9 °F
N
2.1
Wind Variable Wind from South
Gusts 4.6 mph

Today
High -- | Low -- °F
--% Chance of Precip.
Yesterday
High -- | Low -- °F
Precip. -- in
6:11 AM 7:33 PM
Waxing Gibbous, 98% visible
Pressure 30.15 in
Visibility 10.0 miles
Clouds Clear
Dew Point 62 °F
Humidity 81%
Rainfall 0.00 in
Snow Depth Not available.
UV 3 out of 12
Pollen 5.60 out of 12
Air Quality Not available.
Flu Activity Not available.
METAR KRAC 281353Z AUTO 20004KT 10SM CLR 20/14 A3015 RMK AO2 SLP210 T02000144
Pressure 30.15 in
Visibility 10.0 miles
Clouds Clear
Dew Point 62 °F
Humidity 81%
Rainfall 0.00 in
Snow Depth Not available.
UV 3 out of 12
Pollen 5.60 out of 12
Air Quality Not available.
Flu Activity Not available.
METAR KRAC 281353Z AUTO 20004KT 10SM CLR 20/14 A3015 RMK AO2 SLP210 T02000144

10-Day Weather Forecast

×

Almanac

Astronomy

Aug. 28, 2015 Rise Set
Actual Time
Civil Twilight
Nautical Twilight
Astronomical Twilight
Moon
Length of Visible Light
Length of Day
Tomorrow will be .
, % of the Moon is Illuminated

Today's Extremes

State Highs State Lows

Community

WunderPhotos

Upload Photos

1,850,386 photos uploaded!

WunderBlogs® & News

Nearby

Air Quality

  Air Quality AQ Index Pollutant
Not available.

Snow Depth

Station Depth Elevation

Earthquake Activity

City Distance Mag. Time & Date
Minimum magnitude displayed is 2.5.

Coastal Water Temperatures

Place Temperature

Stations

Nearby Weather Stations

Station Location Temp. Windchill Dew Point Humidity Wind Precip. Elev Updated Type